Time;durP1;ratioP1;P1;durP2;ratioP2;P2;SDS_P1;SDS_P2;PMS_P1;PMS_P2;Temp;Humidity;BMP_temperature;BMP_pressure;BME280_temperature;BME280_humidity;BME280_pressure;Samples;Min_cycle;Max_cycle;Signal;HPM_P1;HPM_P2
2023/10/01 00:00:22;;;;;;;6.68;5.20;;;21.10;77.60;;;;;;4994127;28;20655;-70
2023/10/01 00:02:49;;;;;;;5.90;4.55;;;21.10;77.50;;;;;;4999375;28;20212;-70
2023/10/01 00:05:14;;;;;;;5.97;4.88;;;21.10;77.50;;;;;;4967340;28;20188;-70
2023/10/01 00:07:41;;;;;;;6.72;4.80;;;21.10;77.50;;;;;;4999126;28;20228;-70
2023/10/01 00:10:10;;;;;;;5.80;4.50;;;21.10;77.50;;;;;;4999182;28;20193;-70
2023/10/01 00:12:54;;;;;;;5.43;4.72;;;21.10;77.50;;;;;;4998036;28;20187;-70
2023/10/01 00:15:24;;;;;;;6.40;4.78;;;21.10;77.50;;;;;;4982927;28;20185;-70
2023/10/01 00:17:50;;;;;;;6.03;4.65;;;21.10;77.50;;;;;;4991411;28;20216;-70
2023/10/01 00:22:51;;;;;;;5.82;4.10;;;21.10;77.50;;;;;;4993083;28;20192;-70
2023/10/01 00:25:18;;;;;;;6.45;5.13;;;21.10;77.60;;;;;;4960452;28;20193;-70
2023/10/01 00:27:45;;;;;;;5.38;4.43;;;21.10;77.50;;;;;;5007815;28;20311;-70
2023/10/01 00:30:11;;;;;;;5.38;4.50;;;21.10;77.50;;;;;;5001703;28;20192;-70
2023/10/01 00:32:39;;;;;;;5.95;4.57;;;21.10;77.50;;;;;;4998363;28;20181;-70
2023/10/01 00:35:06;;;;;;;5.28;4.60;;;21.00;77.40;;;;;;4998341;28;20183;-70
2023/10/01 00:37:34;;;;;;;6.15;4.90;;;21.10;77.50;;;;;;4988038;28;20212;-70
2023/10/01 00:40:01;;;;;;;5.93;4.47;;;21.10;77.50;;;;;;4975259;28;20579;-70
2023/10/01 00:42:28;;;;;;;5.57;4.85;;;21.10;77.40;;;;;;4982546;28;20192;-70
2023/10/01 00:44:57;;;;;;;6.60;4.90;;;21.10;77.40;;;;;;4975540;28;20579;-70
2023/10/01 00:47:26;;;;;;;5.15;4.43;;;21.10;77.40;;;;;;4987915;28;20225;-70
2023/10/01 00:49:54;;;;;;;5.88;4.55;;;21.10;77.40;;;;;;4998490;28;20200;-70
2023/10/01 00:52:23;;;;;;;7.18;5.25;;;21.10;77.40;;;;;;4991995;28;20185;-70
2023/10/01 00:54:54;;;;;;;6.43;4.82;;;21.00;77.20;;;;;;4981820;28;20570;-70
2023/10/01 00:57:21;;;;;;;6.28;4.70;;;21.10;77.30;;;;;;4957957;28;20214;-70
2023/10/01 00:59:48;;;;;;;5.28;4.53;;;21.10;77.40;;;;;;4997501;28;20271;-70
2023/10/01 01:02:15;;;;;;;5.35;4.60;;;21.10;77.40;;;;;;4990658;28;20180;-70
2023/10/01 01:04:47;;;;;;;5.60;4.72;;;21.10;77.40;;;;;;4998513;28;20276;-70
2023/10/01 01:07:19;;;;;;;6.57;4.85;;;21.10;77.40;;;;;;4959055;28;20217;-70
2023/10/01 01:09:46;;;;;;;6.90;5.03;;;21.10;77.40;;;;;;5002897;28;20182;-70
2023/10/01 01:12:13;;;;;;;6.32;5.00;;;21.10;77.40;;;;;;4981288;28;20191;-71
2023/10/01 01:14:45;;;;;;;6.03;5.07;;;21.00;77.20;;;;;;5004780;28;20184;-70
2023/10/01 01:17:11;;;;;;;5.65;4.80;;;21.10;77.40;;;;;;4959112;28;20208;-71
2023/10/01 01:19:38;;;;;;;5.93;4.68;;;21.10;77.40;;;;;;5002838;28;20185;-70
2023/10/01 01:22:04;;;;;;;5.88;4.80;;;21.00;77.20;;;;;;4991800;28;20185;-70
2023/10/01 01:24:30;;;;;;;6.60;5.25;;;21.00;77.10;;;;;;4959021;28;20184;-71
2023/10/01 01:27:05;;;;;;;5.68;4.70;;;21.00;77.10;;;;;;5005946;28;20200;-71
2023/10/01 01:29:40;;;;;;;5.10;4.18;;;21.00;77.10;;;;;;5002650;28;20272;-70
2023/10/01 01:32:15;;;;;;;6.70;5.10;;;21.00;77.10;;;;;;4985834;28;20183;-71
2023/10/01 01:34:43;;;;;;;6.25;4.45;;;21.00;77.00;;;;;;4987169;28;20212;-70
2023/10/01 01:37:30;;;;;;;5.35;4.75;;;21.00;77.00;;;;;;4964152;28;20182;-70
2023/10/01 01:39:57;;;;;;;5.55;4.60;;;21.00;77.00;;;;;;4986264;28;20200;-71
2023/10/01 01:42:24;;;;;;;6.05;4.90;;;21.00;77.10;;;;;;4987147;28;20184;-70
2023/10/01 01:47:36;;;;;;;5.70;4.40;;;21.00;77.00;;;;;;4991874;28;20223;-70
2023/10/01 01:50:26;;;;;;;6.85;4.93;;;21.00;77.00;;;;;;4960150;28;20182;-70
2023/10/01 01:52:57;;;;;;;6.05;4.70;;;21.00;77.00;;;;;;4978192;28;20334;-71
2023/10/01 01:55:29;;;;;;;5.25;4.38;;;21.00;77.00;;;;;;4985781;28;20183;-70
2023/10/01 01:58:10;;;;;;;5.70;4.57;;;21.00;76.90;;;;;;4983339;28;20200;-71
2023/10/01 02:00:39;;;;;;;5.30;4.60;;;21.00;77.00;;;;;;4996930;28;20184;-70
2023/10/01 02:03:17;;;;;;;5.95;4.63;;;21.00;77.00;;;;;;4972571;28;20207;-70
2023/10/01 02:05:47;;;;;;;6.55;4.78;;;21.00;77.00;;;;;;4983137;28;20195;-70
2023/10/01 02:10:59;;;;;;;5.95;4.93;;;21.00;77.00;;;;;;4988032;28;20195;-70
2023/10/01 02:13:27;;;;;;;6.30;4.68;;;21.00;77.00;;;;;;5004116;28;20191;-70
2023/10/01 02:15:53;;;;;;;7.93;5.05;;;21.00;77.00;;;;;;4995788;28;20197;-70
2023/10/01 02:18:20;;;;;;;5.32;4.50;;;21.00;77.00;;;;;;4973973;28;20210;-70
2023/10/01 02:20:56;;;;;;;5.53;4.75;;;21.00;77.00;;;;;;4988321;28;20181;-70
2023/10/01 02:23:26;;;;;;;6.70;5.13;;;21.00;77.00;;;;;;4992389;28;20181;-70
2023/10/01 02:25:53;;;;;;;5.07;4.40;;;21.00;77.00;;;;;;4980327;28;20616;-70
2023/10/01 02:28:19;;;;;;;5.93;4.45;;;20.90;76.80;;;;;;4987696;28;20722;-71
2023/10/01 02:30:45;;;;;;;6.20;5.05;;;21.00;76.90;;;;;;5002500;28;20182;-70
2023/10/01 02:33:20;;;;;;;5.88;4.88;;;21.00;77.00;;;;;;4965215;28;20184;-70
2023/10/01 02:35:55;;;;;;;5.95;4.32;;;21.00;76.90;;;;;;5004032;28;20190;-70
2023/10/01 02:38:40;;;;;;;6.10;4.78;;;21.00;76.90;;;;;;4987343;28;20261;-70
2023/10/01 02:41:08;;;;;;;6.00;4.53;;;21.00;77.00;;;;;;4981172;28;20683;-70
2023/10/01 02:43:36;;;;;;;6.32;4.97;;;21.00;76.90;;;;;;4978552;28;20189;-70
2023/10/01 02:46:12;;;;;;;5.72;4.60;;;20.90;76.80;;;;;;4982873;28;20207;-70
2023/10/01 02:48:42;;;;;;;5.15;4.53;;;21.00;76.90;;;;;;4961677;28;20299;-70
2023/10/01 02:51:14;;;;;;;6.40;4.90;;;21.00;76.90;;;;;;4962330;28;20191;-70
2023/10/01 02:57:12;;;;;;;5.43;4.53;;;20.90;76.70;;;;;;4980497;28;20203;-70
2023/10/01 03:00:11;;;;;;;6.32;5.15;;;21.00;76.80;;;;;;4978250;28;20203;-70
2023/10/01 03:02:30;;;;;;;5.82;4.75;;;20.90;77.50;;;;;;4993875;28;20192;-70
2023/10/01 03:05:05;;;;;;;5.82;4.30;;;21.00;76.80;;;;;;4994016;28;20200;-70
2023/10/01 03:07:37;;;;;;;5.43;4.55;;;20.90;76.70;;;;;;4977780;28;20216;-70
2023/10/01 03:10:12;;;;;;;6.78;5.25;;;20.90;76.70;;;;;;4977864;28;20185;-70
2023/10/01 03:12:40;;;;;;;5.30;4.20;;;20.90;76.60;;;;;;4994176;28;20251;-71
2023/10/01 03:17:55;;;;;;;4.88;4.25;;;20.90;76.70;;;;;;4977374;28;20216;-71
2023/10/01 03:26:04;;;;;;;6.18;4.68;;;20.90;76.60;;;;;;4994376;28;20192;-70
2023/10/01 03:29:13;;;;;;;5.18;4.35;;;20.90;76.60;;;;;;4961190;28;20259;-71
2023/10/01 03:31:20;;;;;;;5.47;4.50;;;20.90;76.60;;;;;;4994807;28;20251;-71
2023/10/01 03:33:45;;;;;;;5.32;4.20;;;20.90;76.30;;;;;;4993326;28;20193;-70
2023/10/01 03:36:16;;;;;;;5.60;4.68;;;20.90;76.60;;;;;;4993324;28;20173;-70
2023/10/01 03:38:47;;;;;;;5.30;4.20;;;20.90;76.40;;;;;;4997007;28;20208;-71
2023/10/01 03:41:52;;;;;;;5.65;4.47;;;20.80;76.40;;;;;;4987952;28;20549;-71
2023/10/01 03:44:09;;;;;;;5.40;4.38;;;20.90;76.50;;;;;;4980931;28;20188;-70
2023/10/01 03:46:45;;;;;;;5.38;4.50;;;20.90;76.90;;;;;;4993089;28;20699;-70
2023/10/01 03:52:00;;;;;;;5.90;4.75;;;20.90;76.50;;;;;;4992390;28;20212;-70
2023/10/01 03:57:17;;;;;;;6.03;4.30;;;20.80;76.40;;;;;;4983896;28;20198;-70
2023/10/01 03:59:53;;;;;;;5.53;4.40;;;20.80;76.30;;;;;;4998126;28;20668;-69
2023/10/01 04:02:28;;;;;;;5.60;4.25;;;20.90;76.50;;;;;;4997803;28;20203;-70
2023/10/01 04:04:57;;;;;;;5.47;4.30;;;20.80;76.20;;;;;;4994374;28;20188;-70
2023/10/01 04:07:26;;;;;;;5.47;4.63;;;20.80;76.20;;;;;;4976234;28;20217;-70
2023/10/01 04:09:55;;;;;;;5.63;4.47;;;20.80;76.40;;;;;;4984064;28;20177;-70
2023/10/01 04:12:28;;;;;;;5.78;4.30;;;20.80;76.20;;;;;;5001521;28;20176;-70
2023/10/01 04:15:01;;;;;;;4.97;3.88;;;20.80;76.30;;;;;;4979981;28;20193;-70
2023/10/01 04:17:28;;;;;;;5.35;4.18;;;20.80;76.20;;;;;;4963612;28;20260;-71
2023/10/01 04:19:57;;;;;;;4.82;4.25;;;20.80;76.20;;;;;;4983248;28;20197;-71
2023/10/01 04:22:25;;;;;;;5.90;4.50;;;20.80;76.20;;;;;;4984674;28;20184;-70
2023/10/01 04:25:01;;;;;;;5.43;4.03;;;20.80;76.20;;;;;;4996365;28;20196;-70
2023/10/01 04:27:30;;;;;;;6.45;4.78;;;20.80;76.10;;;;;;4978182;28;20691;-70
2023/10/01 04:30:01;;;;;;;4.90;4.28;;;20.90;76.30;;;;;;4998254;28;20208;-70
2023/10/01 04:32:27;;;;;;;5.65;4.70;;;20.80;76.10;;;;;;4985600;28;20188;-70
2023/10/01 04:35:01;;;;;;;5.53;4.28;;;20.80;76.90;;;;;;4992722;28;20193;-70
2023/10/01 04:37:36;;;;;;;5.97;4.50;;;20.80;76.10;;;;;;4995582;28;20227;-70
2023/10/01 04:42:51;;;;;;;5.85;4.60;;;20.80;76.10;;;;;;4980046;28;20200;-70
2023/10/01 04:45:23;;;;;;;5.18;4.55;;;20.80;76.10;;;;;;4997605;28;20189;-70
2023/10/01 04:47:55;;;;;;;6.25;4.05;;;20.80;76.20;;;;;;5002805;28;20708;-70
2023/10/01 04:50:29;;;;;;;5.95;4.78;;;20.80;76.90;;;;;;4997125;28;20248;-70
2023/10/01 04:52:59;;;;;;;6.70;4.30;;;20.80;76.10;;;;;;4981928;28;20200;-70
2023/10/01 04:55:28;;;;;;;5.53;4.20;;;20.80;76.00;;;;;;4996249;28;20224;-70
2023/10/01 04:57:56;;;;;;;5.82;4.32;;;20.80;76.10;;;;;;4997642;28;20216;-70
2023/10/01 05:00:25;;;;;;;4.78;3.85;;;20.80;76.10;;;;;;4962807;28;20276;-70
2023/10/01 05:02:51;;;;;;;5.03;4.38;;;20.80;76.00;;;;;;4991836;28;20194;-70
2023/10/01 05:05:26;;;;;;;6.18;4.32;;;20.80;76.10;;;;;;4999852;28;20271;-70
2023/10/01 05:08:01;;;;;;;4.80;3.92;;;20.80;76.10;;;;;;4994427;28;20264;-70
2023/10/01 05:10:27;;;;;;;5.68;4.22;;;20.80;76.00;;;;;;4959854;28;20191;-70
2023/10/01 05:12:58;;;;;;;5.45;4.15;;;20.80;76.00;;;;;;4997407;28;20185;-70
2023/10/01 05:15:36;;;;;;;5.72;4.10;;;20.70;76.00;;;;;;4997409;28;20195;-70
2023/10/01 05:18:04;;;;;;;4.75;3.97;;;20.80;76.10;;;;;;4980426;28;20695;-70
2023/10/01 05:20:30;;;;;;;5.40;4.15;;;20.80;76.00;;;;;;4991946;28;20183;-70
2023/10/01 05:23:02;;;;;;;5.88;4.85;;;20.80;76.00;;;;;;4982225;28;20275;-70
2023/10/01 05:25:31;;;;;;;5.50;4.47;;;20.70;75.90;;;;;;4997972;28;20233;-71
2023/10/01 05:27:59;;;;;;;4.75;3.97;;;20.80;76.00;;;;;;4980279;28;20224;-70
2023/10/01 05:30:42;;;;;;;4.88;4.05;;;20.70;75.80;;;;;;4982015;28;20643;-70
2023/10/01 05:33:12;;;;;;;5.47;4.15;;;20.80;75.80;;;;;;4998381;28;20181;-70
2023/10/01 05:35:44;;;;;;;4.82;3.78;;;20.80;76.00;;;;;;4972876;28;20238;-70
2023/10/01 05:38:16;;;;;;;4.72;3.78;;;20.70;75.70;;;;;;5001618;28;20704;-71
2023/10/01 05:40:44;;;;;;;5.10;4.57;;;20.80;75.90;;;;;;4991412;28;20198;-70
2023/10/01 05:43:13;;;;;;;5.28;4.60;;;20.70;75.80;;;;;;4976471;28;20267;-70
2023/10/01 05:45:52;;;;;;;6.75;4.10;;;20.70;75.90;;;;;;4996863;28;20294;-70
2023/10/01 05:48:19;;;;;;;4.85;3.95;;;20.70;75.90;;;;;;4991000;28;20216;-70
2023/10/01 05:50:49;;;;;;;4.60;3.95;;;20.70;75.80;;;;;;4983917;28;20184;-70
2023/10/01 05:53:18;;;;;;;5.53;4.15;;;20.70;75.80;;;;;;4977129;28;20207;-70
2023/10/01 05:55:44;;;;;;;5.80;4.18;;;20.70;75.80;;;;;;4979515;28;20188;-70
2023/10/01 05:58:13;;;;;;;4.68;3.75;;;20.70;75.80;;;;;;4979252;28;20212;-70
2023/10/01 06:00:56;;;;;;;4.93;3.80;;;20.70;75.80;;;;;;4979166;28;20195;-70
2023/10/01 06:03:24;;;;;;;5.60;4.53;;;20.70;75.70;;;;;;4992538;28;20196;-70
2023/10/01 06:05:59;;;;;;;6.75;4.75;;;20.70;75.70;;;;;;4990250;28;20189;-70
2023/10/01 06:08:32;;;;;;;4.82;4.10;;;20.70;75.70;;;;;;4994801;28;20226;-70
2023/10/01 06:11:06;;;;;;;5.18;4.15;;;20.70;75.60;;;;;;4994983;28;20189;-70
2023/10/01 06:13:51;;;;;;;5.47;4.60;;;20.70;75.70;;;;;;4978880;28;20192;-70
2023/10/01 06:16:23;;;;;;;5.50;4.50;;;20.70;75.70;;;;;;4994935;28;20189;-70
2023/10/01 06:18:58;;;;;;;5.28;3.90;;;20.70;75.70;;;;;;4973517;28;20727;-70
2023/10/01 06:21:27;;;;;;;4.88;3.80;;;20.70;75.70;;;;;;4993537;28;20180;-70
2023/10/01 06:23:58;;;;;;;4.60;4.00;;;20.70;75.70;;;;;;4991876;28;20660;-70
2023/10/01 06:29:25;;;;;;;4.82;3.65;;;20.70;75.70;;;;;;4974213;28;20263;-70
2023/10/01 06:32:00;;;;;;;4.65;3.72;;;20.70;75.70;;;;;;4987733;28;20190;-70
2023/10/01 06:34:32;;;;;;;4.75;4.13;;;20.70;75.70;;;;;;4993294;28;20190;-70
2023/10/01 06:37:00;;;;;;;5.40;4.43;;;20.70;75.60;;;;;;4990686;28;20219;-71
2023/10/01 06:39:33;;;;;;;5.43;4.03;;;20.70;75.80;;;;;;4985422;28;20246;-70
2023/10/01 06:42:18;;;;;;;7.22;5.15;;;20.70;75.80;;;;;;4992297;28;20224;-70
2023/10/01 06:44:52;;;;;;;4.82;3.97;;;20.70;75.70;;;;;;4972743;28;20189;-70
2023/10/01 06:47:22;;;;;;;4.65;3.70;;;20.70;75.80;;;;;;4992943;28;20216;-70
2023/10/01 06:50:12;;;;;;;6.30;4.45;;;20.70;75.80;;;;;;4992464;28;20216;-71
2023/10/01 06:52:41;;;;;;;4.68;4.13;;;20.70;75.70;;;;;;4975950;28;20195;-70
2023/10/01 06:55:25;;;;;;;4.47;3.88;;;20.70;75.80;;;;;;4978203;28;20203;-71
2023/10/01 06:58:00;;;;;;;5.00;4.47;;;20.70;75.80;;;;;;4976941;28;20221;-70
2023/10/01 07:00:32;;;;;;;5.20;3.85;;;20.70;75.80;;;;;;4992676;28;20219;-70
2023/10/01 07:03:16;;;;;;;6.45;4.57;;;20.70;75.90;;;;;;4991677;28;20193;-70
2023/10/01 07:05:45;;;;;;;5.13;4.10;;;20.70;75.80;;;;;;4990833;28;20193;-70
2023/10/01 07:08:14;;;;;;;5.03;3.90;;;20.70;75.80;;;;;;5001094;28;20275;-70
2023/10/01 07:10:40;;;;;;;5.55;4.32;;;20.70;75.80;;;;;;5000231;28;20229;-70
2023/10/01 07:13:06;;;;;;;4.68;3.78;;;20.70;75.80;;;;;;4981200;28;20216;-70
2023/10/01 07:15:39;;;;;;;5.20;4.43;;;20.70;75.90;;;;;;4978952;28;20188;-70
2023/10/01 07:18:15;;;;;;;5.35;4.00;;;20.70;75.80;;;;;;4999079;28;20205;-70
2023/10/01 07:20:44;;;;;;;5.32;4.20;;;20.70;75.80;;;;;;4985906;28;20188;-70
2023/10/01 07:23:13;;;;;;;5.55;4.43;;;20.70;75.90;;;;;;4975359;28;20186;-70
2023/10/01 07:25:42;;;;;;;4.38;3.83;;;20.70;75.90;;;;;;4990339;28;20218;-70
2023/10/01 07:28:12;;;;;;;5.40;3.97;;;20.70;75.90;;;;;;4991680;28;20224;-70
2023/10/01 07:30:46;;;;;;;6.68;4.20;;;20.70;75.90;;;;;;4969642;28;20197;-70
2023/10/01 07:33:20;;;;;;;5.25;3.88;;;20.70;75.90;;;;;;4992565;28;20200;-70
2023/10/01 07:35:58;;;;;;;5.57;4.45;;;20.70;76.00;;;;;;4961090;28;20181;-70
2023/10/01 07:38:26;;;;;;;6.00;4.30;;;20.70;75.90;;;;;;4995136;28;20211;-70
2023/10/01 07:40:57;;;;;;;4.95;3.75;;;20.70;76.00;;;;;;4991825;28;20204;-71
2023/10/01 07:43:28;;;;;;;4.88;4.30;;;20.70;76.00;;;;;;4989192;28;20192;-70
2023/10/01 07:46:02;;;;;;;5.72;4.22;;;20.70;76.00;;;;;;4977761;28;20251;-71
2023/10/01 07:48:29;;;;;;;4.72;4.03;;;20.70;76.00;;;;;;4993583;28;20216;-70
2023/10/01 07:50:56;;;;;;;5.03;3.83;;;20.70;76.10;;;;;;4977867;28;20193;-71
2023/10/01 07:53:32;;;;;;;5.13;4.05;;;20.70;76.10;;;;;;4991979;28;20190;-70
2023/10/01 07:56:07;;;;;;;6.15;4.10;;;20.70;76.00;;;;;;4994161;28;20188;-70
2023/10/01 07:58:47;;;;;;;6.90;4.68;;;20.70;76.00;;;;;;4994276;28;20212;-70
2023/10/01 08:04:06;;;;;;;5.72;4.07;;;20.80;76.10;;;;;;4990467;28;20281;-70
2023/10/01 08:06:41;;;;;;;6.88;4.38;;;20.80;76.10;;;;;;4992562;28;20218;-70
2023/10/01 08:09:12;;;;;;;4.30;3.55;;;20.80;76.00;;;;;;5001482;28;20215;-70
2023/10/01 08:14:27;;;;;;;5.53;4.43;;;20.90;76.20;;;;;;4993467;28;20196;-70
2023/10/01 08:16:57;;;;;;;6.80;4.55;;;20.90;77.00;;;;;;4976508;28;20212;-70
2023/10/01 08:19:23;;;;;;;5.20;4.20;;;20.90;76.30;;;;;;4999748;28;20731;-70
2023/10/01 08:21:53;;;;;;;5.78;4.47;;;20.90;76.30;;;;;;4992941;28;20185;-71
2023/10/01 08:24:33;;;;;;;5.50;4.07;;;21.00;76.30;;;;;;5001378;28;20187;-70
2023/10/01 08:27:12;;;;;;;4.95;4.00;;;21.00;76.40;;;;;;4989343;28;20213;-70
2023/10/01 08:32:23;;;;;;;5.40;4.30;;;20.90;76.30;;;;;;4992582;28;20189;-70
2023/10/01 08:35:06;;;;;;;5.90;4.20;;;21.00;76.40;;;;;;4989098;28;20189;-70
2023/10/01 08:37:37;;;;;;;6.65;4.43;;;20.90;76.30;;;;;;4975945;28;20213;-70
2023/10/01 08:40:13;;;;;;;5.10;4.15;;;21.00;76.40;;;;;;4976029;28;20590;-70
2023/10/01 08:42:44;;;;;;;6.63;4.65;;;21.00;76.40;;;;;;4989437;28;20189;-70
2023/10/01 08:45:12;;;;;;;5.68;4.40;;;21.00;76.40;;;;;;4989615;28;20251;-71
2023/10/01 08:47:38;;;;;;;6.20;4.55;;;21.00;76.40;;;;;;4988601;28;20217;-70
2023/10/01 08:52:57;;;;;;;6.63;4.35;;;21.00;76.50;;;;;;4986574;28;20192;-70
2023/10/01 08:55:35;;;;;;;6.28;4.40;;;21.00;76.40;;;;;;4993087;28;20213;-70
2023/10/01 08:58:15;;;;;;;5.25;4.00;;;21.00;76.50;;;;;;4964245;28;20217;-70
2023/10/01 09:00:52;;;;;;;4.78;3.78;;;21.00;76.50;;;;;;4956853;28;20285;-70
2023/10/01 09:03:28;;;;;;;6.32;4.60;;;21.00;76.50;;;;;;4987433;28;20196;-70
2023/10/01 09:06:03;;;;;;;6.78;4.43;;;21.00;76.50;;;;;;4970735;28;20194;-70
2023/10/01 09:08:45;;;;;;;5.40;4.35;;;21.00;76.50;;;;;;5002956;28;20302;-70
2023/10/01 09:11:15;;;;;;;5.85;4.47;;;21.00;76.50;;;;;;4986629;28;20287;-70
2023/10/01 09:14:15;;;;;;;6.88;4.95;;;21.00;76.50;;;;;;4994475;28;20214;-70
2023/10/01 09:16:43;;;;;;;6.18;4.65;;;21.00;76.50;;;;;;4984121;28;20239;-70
2023/10/01 09:19:30;;;;;;;5.47;4.10;;;21.00;77.30;;;;;;5000703;28;20241;-70
2023/10/01 09:22:07;;;;;;;6.85;4.15;;;21.00;76.50;;;;;;4988947;28;20706;-70
2023/10/01 09:24:34;;;;;;;5.68;3.97;;;21.00;76.50;;;;;;4993523;28;20188;-70
2023/10/01 09:27:09;;;;;;;6.07;4.40;;;21.00;76.60;;;;;;5003253;28;20338;-70
2023/10/01 09:29:46;;;;;;;6.93;4.68;;;21.10;76.80;;;;;;4991374;28;20259;-70
2023/10/01 09:32:13;;;;;;;5.68;4.13;;;21.00;76.60;;;;;;4993186;28;20270;-71
2023/10/01 09:34:53;;;;;;;6.43;4.65;;;21.00;76.70;;;;;;4986296;28;20611;-70
2023/10/01 09:37:42;;;;;;;6.50;4.45;;;21.10;76.80;;;;;;4993097;28;20216;-70
2023/10/01 09:40:52;;;;;;;6.43;4.72;;;21.00;76.70;;;;;;4959856;28;20282;-70
2023/10/01 09:43:03;;;;;;;6.63;4.55;;;21.10;76.70;;;;;;4972160;28;20254;-70
2023/10/01 09:45:41;;;;;;;6.50;4.80;;;21.10;76.70;;;;;;4982717;28;20706;-70
2023/10/01 09:48:10;;;;;;;5.43;4.03;;;21.10;76.80;;;;;;4976841;28;20223;-70
2023/10/01 09:50:44;;;;;;;5.28;3.97;;;21.10;76.80;;;;;;4991747;28;20192;-70
2023/10/01 09:53:24;;;;;;;4.80;4.00;;;21.10;76.80;;;;;;4989836;28;20694;-70
2023/10/01 09:55:59;;;;;;;5.53;4.18;;;21.10;76.80;;;;;;4989902;28;20211;-70
2023/10/01 09:58:25;;;;;;;6.25;4.93;;;21.10;76.80;;;;;;4983165;28;20220;-70
2023/10/01 10:01:01;;;;;;;5.28;4.35;;;21.10;76.60;;;;;;4977336;28;20187;-70
2023/10/01 10:03:37;;;;;;;6.07;4.38;;;21.10;76.70;;;;;;5008238;28;20271;-70
2023/10/01 10:06:08;;;;;;;7.57;4.70;;;21.10;76.50;;;;;;4986387;28;20644;-70
2023/10/01 10:08:37;;;;;;;6.70;4.35;;;21.10;76.30;;;;;;4991147;28;20220;-70
2023/10/01 10:11:13;;;;;;;5.50;4.18;;;21.10;76.30;;;;;;4989358;28;20223;-70
2023/10/01 10:13:48;;;;;;;6.40;4.78;;;21.10;76.20;;;;;;4965878;28;20188;-70
2023/10/01 10:16:33;;;;;;;6.50;4.80;;;21.10;76.10;;;;;;4989038;28;20237;-70
2023/10/01 10:19:13;;;;;;;6.78;5.10;;;21.10;76.50;;;;;;4987385;28;20203;-70
2023/10/01 10:22:09;;;;;;;6.63;4.65;;;21.10;76.50;;;;;;4981002;28;20181;-70
2023/10/01 10:24:50;;;;;;;6.78;4.43;;;21.10;76.50;;;;;;5003599;28;20189;-70
2023/10/01 10:27:28;;;;;;;6.53;4.35;;;21.10;76.40;;;;;;4988317;28;20212;-70
2023/10/01 10:29:57;;;;;;;6.57;4.80;;;21.10;76.50;;;;;;5002704;28;20184;-70
2023/10/01 10:32:44;;;;;;;5.30;4.38;;;21.10;76.20;;;;;;4990222;28;20574;-70
2023/10/01 10:35:16;;;;;;;6.10;4.13;;;21.10;76.20;;;;;;4982661;28;20201;-70
2023/10/01 10:37:53;;;;;;;5.72;4.25;;;21.10;76.20;;;;;;5008001;28;20208;-70
2023/10/01 10:43:02;;;;;;;6.53;4.70;;;21.10;76.40;;;;;;4996599;28;20219;-70
2023/10/01 10:45:42;;;;;;;6.45;4.45;;;21.10;76.10;;;;;;5007353;28;20227;-70
2023/10/01 10:48:10;;;;;;;5.95;3.80;;;21.10;76.10;;;;;;4968232;28;20226;-70
2023/10/01 10:50:53;;;;;;;5.70;4.15;;;21.10;76.10;;;;;;5010312;28;20185;-70
2023/10/01 10:53:42;;;;;;;5.93;4.15;;;21.10;76.10;;;;;;4961929;28;20189;-71
2023/10/01 10:56:13;;;;;;;6.63;4.40;;;21.10;75.80;;;;;;4984541;28;20188;-70
2023/10/01 10:59:03;;;;;;;5.50;4.18;;;21.10;76.00;;;;;;4982746;28;20236;-70
2023/10/01 11:01:46;;;;;;;5.28;4.28;;;21.10;76.00;;;;;;4995346;28;20193;-70
2023/10/01 11:04:17;;;;;;;8.23;4.40;;;21.10;76.10;;;;;;4971441;28;20188;-70
2023/10/01 11:06:43;;;;;;;6.05;4.13;;;21.20;76.10;;;;;;5006823;28;20235;-70
2023/10/01 11:09:28;;;;;;;5.78;4.15;;;21.10;76.00;;;;;;5001598;28;20299;-71
2023/10/01 11:12:19;;;;;;;6.43;4.32;;;21.10;76.20;;;;;;4973429;28;20216;-70
2023/10/01 11:14:55;;;;;;;6.18;4.40;;;21.20;76.10;;;;;;4983796;28;20664;-70
2023/10/01 11:17:22;;;;;;;6.78;4.80;;;21.20;76.20;;;;;;4992034;28;20212;-70
2023/10/01 11:19:58;;;;;;;5.80;4.40;;;21.10;76.10;;;;;;4983966;28;20193;-70
2023/10/01 11:22:23;;;;;;;6.43;4.60;;;21.10;76.20;;;;;;4993598;28;20188;-71
2023/10/01 11:24:53;;;;;;;8.23;4.90;;;21.20;76.30;;;;;;4964635;28;20208;-70
2023/10/01 11:27:26;;;;;;;5.57;4.60;;;21.10;76.20;;;;;;4999672;28;20270;-70
2023/10/01 11:30:17;;;;;;;8.40;4.75;;;21.10;75.70;;;;;;4989038;28;20189;-70
2023/10/01 11:33:01;;;;;;;6.40;4.38;;;21.10;76.10;;;;;;4985837;28;20196;-70
2023/10/01 11:35:32;;;;;;;5.32;4.22;;;21.20;76.10;;;;;;4994790;28;20199;-70
2023/10/01 11:38:22;;;;;;;6.00;4.35;;;21.20;76.00;;;;;;4993628;28;20267;-70
2023/10/01 11:41:09;;;;;;;6.13;4.50;;;21.20;76.10;;;;;;5007247;28;20216;-70
2023/10/01 11:43:58;;;;;;;5.88;4.60;;;21.20;76.00;;;;;;4960287;28;20212;-70
2023/10/01 11:46:34;;;;;;;4.95;3.90;;;21.20;76.30;;;;;;4988657;28;20275;-71
2023/10/01 11:49:15;;;;;;;6.38;4.43;;;21.20;76.10;;;;;;4984430;28;20219;-70
2023/10/01 11:51:50;;;;;;;5.47;3.92;;;21.20;75.90;;;;;;4981985;28;20204;-70
2023/10/01 11:54:22;;;;;;;5.70;4.25;;;21.20;75.90;;;;;;4996795;28;20260;-70
2023/10/01 11:57:04;;;;;;;5.45;4.05;;;21.20;75.70;;;;;;5001900;28;20180;-70
2023/10/01 11:59:31;;;;;;;5.65;4.45;;;21.20;75.80;;;;;;4960842;28;20255;-72
2023/10/01 12:02:15;;;;;;;6.15;4.35;;;21.20;76.00;;;;;;4993260;28;20275;-70
2023/10/01 12:04:45;;;;;;;5.45;4.00;;;21.20;76.00;;;;;;4988331;28;20188;-70
2023/10/01 12:07:17;;;;;;;5.32;4.00;;;21.20;76.00;;;;;;4982270;28;20311;-71
2023/10/01 12:09:50;;;;;;;6.03;4.07;;;21.20;75.70;;;;;;5003017;28;20209;-70
2023/10/01 12:12:21;;;;;;;5.20;3.78;;;21.20;75.80;;;;;;4988182;28;20189;-70
2023/10/01 12:14:55;;;;;;;5.80;3.90;;;21.20;75.50;;;;;;4993991;28;20189;-70
2023/10/01 12:17:27;;;;;;;5.65;4.22;;;21.20;75.50;;;;;;4992692;28;20299;-70
2023/10/01 12:20:00;;;;;;;6.43;4.05;;;21.20;75.40;;;;;;4996112;28;20196;-70
2023/10/01 12:22:29;;;;;;;5.00;3.65;;;21.20;75.40;;;;;;4988498;28;20192;-70
2023/10/01 12:24:58;;;;;;;5.43;4.10;;;21.20;75.40;;;;;;4993599;28;20189;-70
2023/10/01 12:30:27;;;;;;;5.68;3.85;;;21.20;75.70;;;;;;4987517;28;20185;-71
2023/10/01 12:33:02;;;;;;;6.22;4.03;;;21.20;75.70;;;;;;4997908;28;20195;-70
2023/10/01 12:35:28;;;;;;;6.38;4.40;;;21.20;75.50;;;;;;4960455;28;20177;-70
2023/10/01 12:40:36;;;;;;;5.18;3.58;;;21.20;75.50;;;;;;4993593;28;20201;-70
2023/10/01 12:45:54;;;;;;;5.25;3.83;;;21.20;75.60;;;;;;4994843;28;20227;-70
2023/10/01 12:48:20;;;;;;;5.97;3.92;;;21.20;75.40;;;;;;4997277;28;20221;-70
2023/10/01 12:53:47;;;;;;;5.95;4.40;;;21.20;75.60;;;;;;4997141;28;20189;-70
2023/10/01 12:56:16;;;;;;;6.15;4.20;;;21.20;75.70;;;;;;4983874;28;20180;-70
2023/10/01 12:58:53;;;;;;;5.28;3.90;;;21.20;75.40;;;;;;4979334;28;20209;-70
2023/10/01 13:01:32;;;;;;;5.43;3.95;;;21.20;75.60;;;;;;5005425;28;20192;-71
2023/10/01 13:07:03;;;;;;;4.70;3.63;;;21.20;75.30;;;;;;4988744;28;20228;-71
2023/10/01 13:12:14;;;;;;;6.68;3.92;;;21.30;75.50;;;;;;4990523;28;20260;-70
2023/10/01 13:14:44;;;;;;;5.47;3.90;;;21.30;75.80;;;;;;4993196;28;20188;-70
2023/10/01 13:17:23;;;;;;;6.25;4.32;;;21.30;75.70;;;;;;4992735;28;20188;-71
2023/10/01 13:19:49;;;;;;;4.70;3.88;;;21.30;75.70;;;;;;4993016;28;20196;-70
2023/10/01 13:22:19;;;;;;;4.95;3.90;;;21.20;75.50;;;;;;4971945;28;20180;-70
2023/10/01 13:24:56;;;;;;;4.70;3.80;;;21.20;75.50;;;;;;4979918;28;20601;-70
2023/10/01 13:27:23;;;;;;;5.03;3.80;;;21.20;75.50;;;;;;4984491;28;20220;-70
2023/10/01 13:29:49;;;;;;;5.15;3.53;;;21.20;75.40;;;;;;4988116;28;20189;-70
2023/10/01 13:32:18;;;;;;;6.15;4.30;;;21.30;75.60;;;;;;4963682;28;20212;-70
2023/10/01 13:34:54;;;;;;;5.53;3.95;;;21.30;75.70;;;;;;4968704;28;20212;-70
2023/10/01 13:38:15;;;;;;;5.50;3.83;;;21.30;75.50;;;;;;4964527;28;20192;-70
2023/10/01 13:40:19;;;;;;;5.18;3.75;;;21.30;75.70;;;;;;4994077;28;20378;-71
2023/10/01 14:10:16;;;;;;;5.05;3.92;;;21.30;75.60;;;;;;4986017;28;20221;-71
2023/10/01 14:12:42;;;;;;;5.80;4.30;;;21.30;75.90;;;;;;5009738;28;20215;-71
2023/10/01 14:15:26;;;;;;;6.43;4.35;;;21.30;75.80;;;;;;4965552;28;20185;-70
2023/10/01 14:17:58;;;;;;;7.47;4.63;;;21.30;75.90;;;;;;4970701;28;20220;-70
2023/10/01 14:23:08;;;;;;;5.90;3.83;;;21.30;75.90;;;;;;4997795;28;20237;-70
2023/10/01 14:25:52;;;;;;;5.70;3.65;;;21.30;75.70;;;;;;4989607;28;20184;-70
2023/10/01 14:28:26;;;;;;;5.43;3.88;;;21.30;75.70;;;;;;4984485;28;20216;-70
2023/10/01 14:31:02;;;;;;;6.43;3.88;;;21.30;75.70;;;;;;5005286;28;20188;-70
2023/10/01 14:33:29;;;;;;;5.43;4.15;;;21.30;75.90;;;;;;4985176;28;20598;-71
2023/10/01 14:36:03;;;;;;;6.93;4.55;;;21.40;75.90;;;;;;4985164;28;20698;-70
2023/10/01 14:38:37;;;;;;;5.70;4.68;;;21.40;76.00;;;;;;4969259;28;20215;-70
2023/10/01 14:41:15;;;;;;;5.97;4.22;;;21.40;75.90;;;;;;4983923;28;20206;-70
2023/10/01 14:43:49;;;;;;;6.45;4.57;;;21.40;75.90;;;;;;4981502;28;20189;-72
2023/10/01 14:46:19;;;;;;;6.65;4.43;;;21.30;75.80;;;;;;4988965;28;20188;-70
2023/10/01 14:48:46;;;;;;;6.28;4.35;;;21.30;75.90;;;;;;5004480;28;20223;-70